sensor_id;sensor_type;location;lat;lon;timestamp;temperature;humidity
51035;DHT22;37062;52.546;13.230;2023-12-20T00:02:22;9.80;99.90
51035;DHT22;37062;52.546;13.230;2023-12-20T00:04:50;9.80;99.90
51035;DHT22;37062;52.546;13.230;2023-12-20T00:07:18;9.80;99.90
51035;DHT22;37062;52.546;13.230;2023-12-20T00:09:47;9.80;99.90
51035;DHT22;37062;52.546;13.230;2023-12-20T00:12:15;9.80;99.90
51035;DHT22;37062;52.546;13.230;2023-12-20T00:14:44;9.80;99.90
51035;DHT22;37062;52.546;13.230;2023-12-20T00:17:13;9.70;99.90
51035;DHT22;37062;52.546;13.230;2023-12-20T00:19:41;9.70;99.90
51035;DHT22;37062;52.546;13.230;2023-12-20T00:22:09;9.70;99.90
51035;DHT22;37062;52.546;13.230;2023-12-20T00:24:37;9.70;99.90
51035;DHT22;37062;52.546;13.230;2023-12-20T00:27:06;9.80;99.90
51035;DHT22;37062;52.546;13.230;2023-12-20T00:29:34;9.80;99.90
51035;DHT22;37062;52.546;13.230;2023-12-20T00:32:04;9.80;99.90
51035;DHT22;37062;52.546;13.230;2023-12-20T00:34:32;9.80;99.90
51035;DHT22;37062;52.546;13.230;2023-12-20T00:37:00;9.70;99.90
51035;DHT22;37062;52.546;13.230;2023-12-20T00:39:29;9.70;99.90
51035;DHT22;37062;52.546;13.230;2023-12-20T00:41:57;9.60;99.90
51035;DHT22;37062;52.546;13.230;2023-12-20T00:44:25;9.50;99.90
51035;DHT22;37062;52.546;13.230;2023-12-20T00:46:54;9.60;99.90
51035;DHT22;37062;52.546;13.230;2023-12-20T00:49:24;9.60;99.90
51035;DHT22;37062;52.546;13.230;2023-12-20T00:51:52;9.60;99.90
51035;DHT22;37062;52.546;13.230;2023-12-20T00:54:21;9.70;99.90
51035;DHT22;37062;52.546;13.230;2023-12-20T00:56:49;9.70;99.90
51035;DHT22;37062;52.546;13.230;2023-12-20T00:59:17;9.70;99.90
51035;DHT22;37062;52.546;13.230;2023-12-20T01:01:45;9.70;99.90
51035;DHT22;37062;52.546;13.230;2023-12-20T01:04:14;9.70;99.90
51035;DHT22;37062;52.546;13.230;2023-12-20T01:06:43;9.70;99.90
51035;DHT22;37062;52.546;13.230;2023-12-20T01:09:12;9.70;99.90
51035;DHT22;37062;52.546;13.230;2023-12-20T01:11:40;9.70;99.90
51035;DHT22;37062;52.546;13.230;2023-12-20T01:14:08;9.70;99.90
51035;DHT22;37062;52.546;13.230;2023-12-20T01:16:36;9.80;99.90
51035;DHT22;37062;52.546;13.230;2023-12-20T01:19:04;9.80;99.90
51035;DHT22;37062;52.546;13.230;2023-12-20T01:21:33;9.80;99.90
51035;DHT22;37062;52.546;13.230;2023-12-20T01:24:03;9.80;99.90
51035;DHT22;37062;52.546;13.230;2023-12-20T01:26:31;9.80;99.90
51035;DHT22;37062;52.546;13.230;2023-12-20T01:29:00;9.80;99.90
51035;DHT22;37062;52.546;13.230;2023-12-20T01:31:28;9.90;99.90
51035;DHT22;37062;52.546;13.230;2023-12-20T01:33:56;9.90;99.90
51035;DHT22;37062;52.546;13.230;2023-12-20T01:36:24;9.90;99.90
51035;DHT22;37062;52.546;13.230;2023-12-20T01:38:53;9.90;99.90
51035;DHT22;37062;52.546;13.230;2023-12-20T01:41:23;9.90;99.90
51035;DHT22;37062;52.546;13.230;2023-12-20T01:43:51;9.80;99.90
51035;DHT22;37062;52.546;13.230;2023-12-20T01:46:21;9.80;99.90
51035;DHT22;37062;52.546;13.230;2023-12-20T01:48:49;9.80;99.90
51035;DHT22;37062;52.546;13.230;2023-12-20T01:51:18;9.80;99.90
51035;DHT22;37062;52.546;13.230;2023-12-20T01:53:47;9.80;99.90
51035;DHT22;37062;52.546;13.230;2023-12-20T01:56:36;9.90;99.90
51035;DHT22;37062;52.546;13.230;2023-12-20T01:59:04;9.80;99.90
51035;DHT22;37062;52.546;13.230;2023-12-20T02:01:41;9.80;99.90
51035;DHT22;37062;52.546;13.230;2023-12-20T02:04:10;9.80;99.90
51035;DHT22;37062;52.546;13.230;2023-12-20T02:06:39;9.80;99.90
51035;DHT22;37062;52.546;13.230;2023-12-20T02:09:08;9.90;99.90
51035;DHT22;37062;52.546;13.230;2023-12-20T02:11:38;9.80;99.90
51035;DHT22;37062;52.546;13.230;2023-12-20T02:14:06;9.80;99.90
51035;DHT22;37062;52.546;13.230;2023-12-20T02:16:35;9.80;99.90
51035;DHT22;37062;52.546;13.230;2023-12-20T02:19:04;9.90;99.90
51035;DHT22;37062;52.546;13.230;2023-12-20T02:21:36;9.90;99.90
51035;DHT22;37062;52.546;13.230;2023-12-20T02:24:05;9.90;99.90
51035;DHT22;37062;52.546;13.230;2023-12-20T02:26:33;9.90;99.90
51035;DHT22;37062;52.546;13.230;2023-12-20T02:29:02;9.90;99.90
51035;DHT22;37062;52.546;13.230;2023-12-20T02:31:30;9.90;99.90
51035;DHT22;37062;52.546;13.230;2023-12-20T02:33:59;9.90;99.90
51035;DHT22;37062;52.546;13.230;2023-12-20T02:36:27;9.90;99.90
51035;DHT22;37062;52.546;13.230;2023-12-20T02:38:57;9.90;99.90
51035;DHT22;37062;52.546;13.230;2023-12-20T02:41:25;9.90;99.90
51035;DHT22;37062;52.546;13.230;2023-12-20T02:43:53;10.00;99.90
51035;DHT22;37062;52.546;13.230;2023-12-20T02:46:22;9.90;99.90
51035;DHT22;37062;52.546;13.230;2023-12-20T02:48:51;9.90;99.90
51035;DHT22;37062;52.546;13.230;2023-12-20T02:51:19;9.90;99.90
51035;DHT22;37062;52.546;13.230;2023-12-20T02:53:47;9.90;99.90
51035;DHT22;37062;52.546;13.230;2023-12-20T02:56:17;10.00;99.90
51035;DHT22;37062;52.546;13.230;2023-12-20T02:58:45;9.90;99.90
51035;DHT22;37062;52.546;13.230;2023-12-20T03:01:13;9.90;99.90
51035;DHT22;37062;52.546;13.230;2023-12-20T03:03:41;9.90;99.90
51035;DHT22;37062;52.546;13.230;2023-12-20T03:06:09;9.80;99.90
51035;DHT22;37062;52.546;13.230;2023-12-20T03:08:38;9.80;99.90
51035;DHT22;37062;52.546;13.230;2023-12-20T03:11:07;9.80;99.90
51035;DHT22;37062;52.546;13.230;2023-12-20T03:13:37;9.60;99.90
51035;DHT22;37062;52.546;13.230;2023-12-20T03:16:08;9.60;99.90
51035;DHT22;37062;52.546;13.230;2023-12-20T03:18:37;9.60;99.90
51035;DHT22;37062;52.546;13.230;2023-12-20T03:21:05;9.60;99.90
51035;DHT22;37062;52.546;13.230;2023-12-20T03:23:33;9.60;99.90
51035;DHT22;37062;52.546;13.230;2023-12-20T03:26:02;9.60;99.90
51035;DHT22;37062;52.546;13.230;2023-12-20T03:28:30;9.60;99.90
51035;DHT22;37062;52.546;13.230;2023-12-20T03:31:00;9.50;99.90
51035;DHT22;37062;52.546;13.230;2023-12-20T03:33:29;9.50;99.90
51035;DHT22;37062;52.546;13.230;2023-12-20T03:35:57;9.40;99.90
51035;DHT22;37062;52.546;13.230;2023-12-20T03:38:25;9.40;99.90
51035;DHT22;37062;52.546;13.230;2023-12-20T03:40:54;9.40;99.90
51035;DHT22;37062;52.546;13.230;2023-12-20T03:43:22;9.40;99.90
51035;DHT22;37062;52.546;13.230;2023-12-20T03:45:50;9.30;99.90
51035;DHT22;37062;52.546;13.230;2023-12-20T03:48:20;9.30;99.90
51035;DHT22;37062;52.546;13.230;2023-12-20T03:50:48;9.30;99.90
51035;DHT22;37062;52.546;13.230;2023-12-20T03:53:17;9.30;99.90
51035;DHT22;37062;52.546;13.230;2023-12-20T03:55:45;9.30;99.90
51035;DHT22;37062;52.546;13.230;2023-12-20T03:58:13;9.30;99.90
51035;DHT22;37062;52.546;13.230;2023-12-20T04:00:41;9.30;99.90
51035;DHT22;37062;52.546;13.230;2023-12-20T04:03:09;9.20;99.90
51035;DHT22;37062;52.546;13.230;2023-12-20T04:05:41;9.20;99.90
51035;DHT22;37062;52.546;13.230;2023-12-20T04:08:09;9.30;99.90
51035;DHT22;37062;52.546;13.230;2023-12-20T04:10:38;9.20;99.90
51035;DHT22;37062;52.546;13.230;2023-12-20T04:13:06;9.10;99.90
51035;DHT22;37062;52.546;13.230;2023-12-20T04:15:34;9.20;99.90
51035;DHT22;37062;52.546;13.230;2023-12-20T04:18:02;9.20;99.90
51035;DHT22;37062;52.546;13.230;2023-12-20T04:20:31;9.20;99.90
51035;DHT22;37062;52.546;13.230;2023-12-20T04:23:00;9.20;99.90
51035;DHT22;37062;52.546;13.230;2023-12-20T04:25:28;9.20;99.90
51035;DHT22;37062;52.546;13.230;2023-12-20T04:27:56;9.20;99.90
51035;DHT22;37062;52.546;13.230;2023-12-20T04:30:25;9.20;99.90
51035;DHT22;37062;52.546;13.230;2023-12-20T04:32:53;9.30;99.90
51035;DHT22;37062;52.546;13.230;2023-12-20T04:35:21;9.20;99.90
51035;DHT22;37062;52.546;13.230;2023-12-20T04:37:49;9.20;99.90
51035;DHT22;37062;52.546;13.230;2023-12-20T04:40:18;9.10;99.90
51035;DHT22;37062;52.546;13.230;2023-12-20T04:42:47;9.00;99.90
51035;DHT22;37062;52.546;13.230;2023-12-20T04:45:15;9.00;99.90
51035;DHT22;37062;52.546;13.230;2023-12-20T04:47:44;9.00;99.90
51035;DHT22;37062;52.546;13.230;2023-12-20T04:50:14;9.00;99.90
51035;DHT22;37062;52.546;13.230;2023-12-20T04:52:42;9.00;99.90
51035;DHT22;37062;52.546;13.230;2023-12-20T04:55:11;9.00;99.90
51035;DHT22;37062;52.546;13.230;2023-12-20T04:57:40;9.00;99.90
51035;DHT22;37062;52.546;13.230;2023-12-20T05:00:11;8.90;99.90
51035;DHT22;37062;52.546;13.230;2023-12-20T05:02:41;8.90;99.90
51035;DHT22;37062;52.546;13.230;2023-12-20T05:05:09;9.00;99.90
51035;DHT22;37062;52.546;13.230;2023-12-20T05:07:37;9.00;99.90
51035;DHT22;37062;52.546;13.230;2023-12-20T05:10:07;9.00;99.90
51035;DHT22;37062;52.546;13.230;2023-12-20T05:12:35;9.00;99.90
51035;DHT22;37062;52.546;13.230;2023-12-20T05:15:06;9.00;99.90
51035;DHT22;37062;52.546;13.230;2023-12-20T05:17:35;9.00;99.90
51035;DHT22;37062;52.546;13.230;2023-12-20T05:20:04;8.90;99.90
51035;DHT22;37062;52.546;13.230;2023-12-20T05:22:32;8.80;99.90
51035;DHT22;37062;52.546;13.230;2023-12-20T05:25:00;8.80;99.90
51035;DHT22;37062;52.546;13.230;2023-12-20T05:27:29;8.70;99.90
51035;DHT22;37062;52.546;13.230;2023-12-20T05:29:57;8.60;99.90
51035;DHT22;37062;52.546;13.230;2023-12-20T05:32:26;8.60;99.90
51035;DHT22;37062;52.546;13.230;2023-12-20T05:34:54;8.60;99.90
51035;DHT22;37062;52.546;13.230;2023-12-20T05:37:23;8.50;99.90
51035;DHT22;37062;52.546;13.230;2023-12-20T05:39:51;8.50;99.90
51035;DHT22;37062;52.546;13.230;2023-12-20T05:42:19;8.50;99.90
51035;DHT22;37062;52.546;13.230;2023-12-20T05:44:47;8.50;99.90
51035;DHT22;37062;52.546;13.230;2023-12-20T05:47:19;8.40;99.90
51035;DHT22;37062;52.546;13.230;2023-12-20T05:49:48;8.40;99.90
51035;DHT22;37062;52.546;13.230;2023-12-20T05:52:17;8.30;99.90
51035;DHT22;37062;52.546;13.230;2023-12-20T05:54:45;8.30;99.90
51035;DHT22;37062;52.546;13.230;2023-12-20T05:57:14;8.20;99.90
51035;DHT22;37062;52.546;13.230;2023-12-20T05:59:42;8.20;99.90
51035;DHT22;37062;52.546;13.230;2023-12-20T06:02:10;8.20;99.90
51035;DHT22;37062;52.546;13.230;2023-12-20T06:04:42;8.20;99.90
51035;DHT22;37062;52.546;13.230;2023-12-20T06:07:13;8.20;99.90
51035;DHT22;37062;52.546;13.230;2023-12-20T06:09:42;8.20;99.90
51035;DHT22;37062;52.546;13.230;2023-12-20T06:12:10;8.20;99.90
51035;DHT22;37062;52.546;13.230;2023-12-20T06:14:38;8.20;99.90
51035;DHT22;37062;52.546;13.230;2023-12-20T06:17:06;8.20;99.90
51035;DHT22;37062;52.546;13.230;2023-12-20T06:19:34;8.20;99.90
51035;DHT22;37062;52.546;13.230;2023-12-20T06:22:03;8.20;99.90
51035;DHT22;37062;52.546;13.230;2023-12-20T06:24:33;8.20;99.90
51035;DHT22;37062;52.546;13.230;2023-12-20T06:27:01;8.20;99.90
51035;DHT22;37062;52.546;13.230;2023-12-20T06:29:29;8.20;99.90
51035;DHT22;37062;52.546;13.230;2023-12-20T06:31:58;8.20;99.90
51035;DHT22;37062;52.546;13.230;2023-12-20T06:34:26;8.30;99.90
51035;DHT22;37062;52.546;13.230;2023-12-20T06:36:54;8.30;99.90
51035;DHT22;37062;52.546;13.230;2023-12-20T06:39:23;8.30;99.90
51035;DHT22;37062;52.546;13.230;2023-12-20T06:41:52;8.30;99.90
51035;DHT22;37062;52.546;13.230;2023-12-20T06:44:20;8.20;99.90
51035;DHT22;37062;52.546;13.230;2023-12-20T06:46:49;8.20;99.90
51035;DHT22;37062;52.546;13.230;2023-12-20T06:49:17;8.30;99.90
51035;DHT22;37062;52.546;13.230;2023-12-20T06:51:45;8.30;99.90
51035;DHT22;37062;52.546;13.230;2023-12-20T06:54:13;8.30;99.90
51035;DHT22;37062;52.546;13.230;2023-12-20T06:56:42;8.30;99.90
51035;DHT22;37062;52.546;13.230;2023-12-20T06:59:11;8.30;99.90
51035;DHT22;37062;52.546;13.230;2023-12-20T07:01:40;8.30;99.90
51035;DHT22;37062;52.546;13.230;2023-12-20T07:04:08;8.30;99.90
51035;DHT22;37062;52.546;13.230;2023-12-20T07:06:36;8.30;99.90
51035;DHT22;37062;52.546;13.230;2023-12-20T07:09:05;8.30;99.90
51035;DHT22;37062;52.546;13.230;2023-12-20T07:11:33;8.30;99.90
51035;DHT22;37062;52.546;13.230;2023-12-20T07:14:01;8.30;99.90
51035;DHT22;37062;52.546;13.230;2023-12-20T07:16:31;8.30;99.90
51035;DHT22;37062;52.546;13.230;2023-12-20T07:18:59;8.20;99.90
51035;DHT22;37062;52.546;13.230;2023-12-20T07:21:27;8.20;99.90
51035;DHT22;37062;52.546;13.230;2023-12-20T07:23:55;8.20;99.90
51035;DHT22;37062;52.546;13.230;2023-12-20T07:26:24;8.10;99.90
51035;DHT22;37062;52.546;13.230;2023-12-20T07:28:52;8.20;99.90
51035;DHT22;37062;52.546;13.230;2023-12-20T07:31:20;8.20;99.90
51035;DHT22;37062;52.546;13.230;2023-12-20T07:33:50;8.20;99.90
51035;DHT22;37062;52.546;13.230;2023-12-20T07:36:19;8.30;99.90
51035;DHT22;37062;52.546;13.230;2023-12-20T07:38:48;8.40;99.90
51035;DHT22;37062;52.546;13.230;2023-12-20T07:41:16;8.40;99.90
51035;DHT22;37062;52.546;13.230;2023-12-20T07:43:44;8.40;99.90
51035;DHT22;37062;52.546;13.230;2023-12-20T07:46:12;8.40;99.90
51035;DHT22;37062;52.546;13.230;2023-12-20T07:48:41;8.30;99.90
51035;DHT22;37062;52.546;13.230;2023-12-20T07:51:13;8.30;99.90
51035;DHT22;37062;52.546;13.230;2023-12-20T07:53:41;8.30;99.90
51035;DHT22;37062;52.546;13.230;2023-12-20T07:56:15;8.30;99.90
51035;DHT22;37062;52.546;13.230;2023-12-20T07:58:44;8.30;99.90
51035;DHT22;37062;52.546;13.230;2023-12-20T08:01:19;8.30;99.90
51035;DHT22;37062;52.546;13.230;2023-12-20T08:03:49;8.30;99.90
51035;DHT22;37062;52.546;13.230;2023-12-20T08:06:19;8.40;99.90
51035;DHT22;37062;52.546;13.230;2023-12-20T08:08:48;8.40;99.90
51035;DHT22;37062;52.546;13.230;2023-12-20T08:11:36;8.40;99.90
51035;DHT22;37062;52.546;13.230;2023-12-20T08:14:05;8.40;99.90
51035;DHT22;37062;52.546;13.230;2023-12-20T08:16:33;8.50;99.90
51035;DHT22;37062;52.546;13.230;2023-12-20T08:19:01;8.50;99.90
51035;DHT22;37062;52.546;13.230;2023-12-20T08:21:31;8.50;99.90
51035;DHT22;37062;52.546;13.230;2023-12-20T08:24:04;8.40;99.90
51035;DHT22;37062;52.546;13.230;2023-12-20T08:26:32;8.40;99.90
51035;DHT22;37062;52.546;13.230;2023-12-20T08:29:00;8.50;99.90
51035;DHT22;37062;52.546;13.230;2023-12-20T08:31:29;8.50;99.90
51035;DHT22;37062;52.546;13.230;2023-12-20T08:33:57;8.50;99.90
51035;DHT22;37062;52.546;13.230;2023-12-20T08:36:25;8.60;99.90
51035;DHT22;37062;52.546;13.230;2023-12-20T08:38:55;8.60;99.90
51035;DHT22;37062;52.546;13.230;2023-12-20T08:41:23;8.70;99.90
51035;DHT22;37062;52.546;13.230;2023-12-20T08:43:51;8.70;99.90
51035;DHT22;37062;52.546;13.230;2023-12-20T08:46:19;8.70;99.90
51035;DHT22;37062;52.546;13.230;2023-12-20T08:48:47;8.70;99.90
51035;DHT22;37062;52.546;13.230;2023-12-20T08:51:16;8.70;99.90
51035;DHT22;37062;52.546;13.230;2023-12-20T08:53:45;8.70;99.90
51035;DHT22;37062;52.546;13.230;2023-12-20T08:56:15;8.70;99.90
51035;DHT22;37062;52.546;13.230;2023-12-20T08:58:45;8.70;99.90
51035;DHT22;37062;52.546;13.230;2023-12-20T09:01:13;8.70;99.90
51035;DHT22;37062;52.546;13.230;2023-12-20T09:03:42;8.70;99.90
51035;DHT22;37062;52.546;13.230;2023-12-20T09:06:11;8.70;99.90
51035;DHT22;37062;52.546;13.230;2023-12-20T09:08:39;8.70;99.90
51035;DHT22;37062;52.546;13.230;2023-12-20T09:11:07;8.80;99.90
51035;DHT22;37062;52.546;13.230;2023-12-20T09:13:37;8.90;99.90
51035;DHT22;37062;52.546;13.230;2023-12-20T09:16:05;8.90;99.90
51035;DHT22;37062;52.546;13.230;2023-12-20T09:18:34;8.90;99.90
51035;DHT22;37062;52.546;13.230;2023-12-20T09:21:02;8.80;99.90
51035;DHT22;37062;52.546;13.230;2023-12-20T09:23:30;8.80;99.90
51035;DHT22;37062;52.546;13.230;2023-12-20T09:25:58;8.80;99.90
51035;DHT22;37062;52.546;13.230;2023-12-20T09:28:26;8.90;99.90
51035;DHT22;37062;52.546;13.230;2023-12-20T09:30:56;8.90;99.90
51035;DHT22;37062;52.546;13.230;2023-12-20T09:33:24;9.00;99.90
51035;DHT22;37062;52.546;13.230;2023-12-20T09:35:53;9.00;99.90
51035;DHT22;37062;52.546;13.230;2023-12-20T09:38:21;9.00;99.90
51035;DHT22;37062;52.546;13.230;2023-12-20T09:40:50;9.00;99.90
51035;DHT22;37062;52.546;13.230;2023-12-20T09:43:19;9.00;99.90
51035;DHT22;37062;52.546;13.230;2023-12-20T09:45:48;9.00;99.90
51035;DHT22;37062;52.546;13.230;2023-12-20T09:48:19;9.00;99.90
51035;DHT22;37062;52.546;13.230;2023-12-20T09:50:48;8.90;99.90
51035;DHT22;37062;52.546;13.230;2023-12-20T09:53:19;8.90;99.90
51035;DHT22;37062;52.546;13.230;2023-12-20T09:55:51;8.90;99.90
51035;DHT22;37062;52.546;13.230;2023-12-20T09:58:20;8.90;99.90
51035;DHT22;37062;52.546;13.230;2023-12-20T10:00:48;8.90;99.90
51035;DHT22;37062;52.546;13.230;2023-12-20T10:03:23;8.90;99.90
51035;DHT22;37062;52.546;13.230;2023-12-20T10:05:52;8.90;99.90
51035;DHT22;37062;52.546;13.230;2023-12-20T10:08:22;8.90;99.90
51035;DHT22;37062;52.546;13.230;2023-12-20T10:10:52;8.90;99.90
51035;DHT22;37062;52.546;13.230;2023-12-20T10:13:20;8.90;99.90
51035;DHT22;37062;52.546;13.230;2023-12-20T10:15:49;8.90;99.90
51035;DHT22;37062;52.546;13.230;2023-12-20T10:18:20;9.00;99.90
51035;DHT22;37062;52.546;13.230;2023-12-20T10:21:03;9.00;99.90
51035;DHT22;37062;52.546;13.230;2023-12-20T10:23:32;9.10;99.90
51035;DHT22;37062;52.546;13.230;2023-12-20T10:26:00;9.10;99.90
51035;DHT22;37062;52.546;13.230;2023-12-20T10:28:33;9.10;99.90
51035;DHT22;37062;52.546;13.230;2023-12-20T10:31:02;9.10;99.90
51035;DHT22;37062;52.546;13.230;2023-12-20T10:33:32;9.10;99.90
51035;DHT22;37062;52.546;13.230;2023-12-20T10:36:01;9.10;99.90
51035;DHT22;37062;52.546;13.230;2023-12-20T10:38:30;9.20;99.90
51035;DHT22;37062;52.546;13.230;2023-12-20T10:40:58;9.20;99.90
51035;DHT22;37062;52.546;13.230;2023-12-20T10:43:28;9.20;99.90
51035;DHT22;37062;52.546;13.230;2023-12-20T10:45:59;9.20;99.90
51035;DHT22;37062;52.546;13.230;2023-12-20T10:48:28;9.30;99.90
51035;DHT22;37062;52.546;13.230;2023-12-20T10:51:00;9.30;99.90
51035;DHT22;37062;52.546;13.230;2023-12-20T10:53:29;9.30;99.90
51035;DHT22;37062;52.546;13.230;2023-12-20T10:56:00;9.30;99.90
51035;DHT22;37062;52.546;13.230;2023-12-20T10:58:30;9.30;99.90
51035;DHT22;37062;52.546;13.230;2023-12-20T11:01:01;9.30;99.90
51035;DHT22;37062;52.546;13.230;2023-12-20T11:03:34;9.30;99.90
51035;DHT22;37062;52.546;13.230;2023-12-20T11:06:10;9.30;99.90
51035;DHT22;37062;52.546;13.230;2023-12-20T11:08:49;9.30;99.90
51035;DHT22;37062;52.546;13.230;2023-12-20T11:11:27;9.30;99.90
51035;DHT22;37062;52.546;13.230;2023-12-20T11:14:01;9.30;99.90
51035;DHT22;37062;52.546;13.230;2023-12-20T11:16:31;9.30;99.90
51035;DHT22;37062;52.546;13.230;2023-12-20T11:19:14;9.40;99.90
51035;DHT22;37062;52.546;13.230;2023-12-20T11:21:46;9.40;99.90
51035;DHT22;37062;52.546;13.230;2023-12-20T11:24:15;9.40;99.90
51035;DHT22;37062;52.546;13.230;2023-12-20T11:26:47;9.40;99.90
51035;DHT22;37062;52.546;13.230;2023-12-20T11:29:30;9.40;99.90
51035;DHT22;37062;52.546;13.230;2023-12-20T11:32:00;9.40;99.90
51035;DHT22;37062;52.546;13.230;2023-12-20T11:34:32;9.40;99.90
51035;DHT22;37062;52.546;13.230;2023-12-20T11:37:03;9.40;99.90
51035;DHT22;37062;52.546;13.230;2023-12-20T11:39:31;9.40;99.90
51035;DHT22;37062;52.546;13.230;2023-12-20T11:42:04;9.40;99.90
51035;DHT22;37062;52.546;13.230;2023-12-20T11:44:35;9.30;99.90
51035;DHT22;37062;52.546;13.230;2023-12-20T11:47:04;9.30;99.90
51035;DHT22;37062;52.546;13.230;2023-12-20T11:49:32;9.20;99.90
51035;DHT22;37062;52.546;13.230;2023-12-20T11:52:02;9.20;99.90
51035;DHT22;37062;52.546;13.230;2023-12-20T11:54:31;9.20;99.90
51035;DHT22;37062;52.546;13.230;2023-12-20T11:56:59;9.20;99.90
51035;DHT22;37062;52.546;13.230;2023-12-20T11:59:27;9.20;99.90
51035;DHT22;37062;52.546;13.230;2023-12-20T12:01:55;9.20;99.90
51035;DHT22;37062;52.546;13.230;2023-12-20T12:04:28;9.30;99.90
51035;DHT22;37062;52.546;13.230;2023-12-20T12:06:57;9.30;99.90
51035;DHT22;37062;52.546;13.230;2023-12-20T12:09:26;9.40;99.90
51035;DHT22;37062;52.546;13.230;2023-12-20T12:11:55;9.40;99.90
51035;DHT22;37062;52.546;13.230;2023-12-20T12:14:24;9.40;99.90
51035;DHT22;37062;52.546;13.230;2023-12-20T12:16:52;9.30;99.90
51035;DHT22;37062;52.546;13.230;2023-12-20T12:19:21;9.40;99.90
51035;DHT22;37062;52.546;13.230;2023-12-20T12:21:50;9.30;99.90
51035;DHT22;37062;52.546;13.230;2023-12-20T12:24:20;9.30;99.90
51035;DHT22;37062;52.546;13.230;2023-12-20T12:26:57;9.30;99.90
51035;DHT22;37062;52.546;13.230;2023-12-20T12:29:25;9.30;99.90
51035;DHT22;37062;52.546;13.230;2023-12-20T12:31:53;9.20;99.90
51035;DHT22;37062;52.546;13.230;2023-12-20T12:34:22;9.20;99.90
51035;DHT22;37062;52.546;13.230;2023-12-20T12:36:50;9.10;99.90
51035;DHT22;37062;52.546;13.230;2023-12-20T12:39:18;9.20;99.90
51035;DHT22;37062;52.546;13.230;2023-12-20T12:41:46;9.20;99.90
51035;DHT22;37062;52.546;13.230;2023-12-20T12:44:16;9.20;99.90
51035;DHT22;37062;52.546;13.230;2023-12-20T12:46:45;9.10;99.90
51035;DHT22;37062;52.546;13.230;2023-12-20T12:49:14;9.20;99.90
51035;DHT22;37062;52.546;13.230;2023-12-20T12:51:43;9.20;99.90
51035;DHT22;37062;52.546;13.230;2023-12-20T12:54:12;9.20;99.90
51035;DHT22;37062;52.546;13.230;2023-12-20T12:56:42;9.10;99.90
51035;DHT22;37062;52.546;13.230;2023-12-20T12:59:11;9.10;99.90
51035;DHT22;37062;52.546;13.230;2023-12-20T13:01:40;9.00;99.90
51035;DHT22;37062;52.546;13.230;2023-12-20T13:04:08;9.10;99.90
51035;DHT22;37062;52.546;13.230;2023-12-20T13:06:38;9.10;99.90
51035;DHT22;37062;52.546;13.230;2023-12-20T13:09:08;9.00;99.90
51035;DHT22;37062;52.546;13.230;2023-12-20T13:11:37;9.00;99.90
51035;DHT22;37062;52.546;13.230;2023-12-20T13:14:05;9.00;99.90
51035;DHT22;37062;52.546;13.230;2023-12-20T13:16:37;8.90;99.90
51035;DHT22;37062;52.546;13.230;2023-12-20T13:19:07;8.80;99.90
51035;DHT22;37062;52.546;13.230;2023-12-20T13:21:35;8.70;99.90
51035;DHT22;37062;52.546;13.230;2023-12-20T13:24:04;8.60;99.90
51035;DHT22;37062;52.546;13.230;2023-12-20T13:26:32;8.60;99.90
51035;DHT22;37062;52.546;13.230;2023-12-20T13:29:01;8.50;99.90
51035;DHT22;37062;52.546;13.230;2023-12-20T13:31:29;8.50;99.90
51035;DHT22;37062;52.546;13.230;2023-12-20T13:33:58;8.50;99.90
51035;DHT22;37062;52.546;13.230;2023-12-20T13:36:29;8.50;99.90
51035;DHT22;37062;52.546;13.230;2023-12-20T13:38:57;8.40;99.90
51035;DHT22;37062;52.546;13.230;2023-12-20T13:41:26;8.50;99.90
51035;DHT22;37062;52.546;13.230;2023-12-20T13:43:54;8.50;99.90
51035;DHT22;37062;52.546;13.230;2023-12-20T13:46:22;8.50;99.90
51035;DHT22;37062;52.546;13.230;2023-12-20T13:48:51;8.50;99.90
51035;DHT22;37062;52.546;13.230;2023-12-20T13:51:19;8.60;99.90
51035;DHT22;37062;52.546;13.230;2023-12-20T13:53:49;8.60;99.90
51035;DHT22;37062;52.546;13.230;2023-12-20T13:56:17;8.60;99.90
51035;DHT22;37062;52.546;13.230;2023-12-20T13:58:47;8.50;99.90
51035;DHT22;37062;52.546;13.230;2023-12-20T14:01:15;8.50;99.90
51035;DHT22;37062;52.546;13.230;2023-12-20T14:03:43;8.40;99.90
51035;DHT22;37062;52.546;13.230;2023-12-20T14:06:12;8.40;99.90
51035;DHT22;37062;52.546;13.230;2023-12-20T14:08:41;8.30;99.90
51035;DHT22;37062;52.546;13.230;2023-12-20T14:11:11;8.30;99.90
51035;DHT22;37062;52.546;13.230;2023-12-20T14:13:42;8.30;99.90
51035;DHT22;37062;52.546;13.230;2023-12-20T14:16:11;8.20;99.90
51035;DHT22;37062;52.546;13.230;2023-12-20T14:18:39;8.20;99.90
51035;DHT22;37062;52.546;13.230;2023-12-20T14:21:08;8.10;99.90
51035;DHT22;37062;52.546;13.230;2023-12-20T14:23:37;8.10;99.90
51035;DHT22;37062;52.546;13.230;2023-12-20T14:26:05;8.10;99.90
51035;DHT22;37062;52.546;13.230;2023-12-20T14:28:35;8.10;99.90
51035;DHT22;37062;52.546;13.230;2023-12-20T14:31:03;8.00;99.90
51035;DHT22;37062;52.546;13.230;2023-12-20T14:33:32;8.00;99.90
51035;DHT22;37062;52.546;13.230;2023-12-20T14:36:00;8.10;99.90
51035;DHT22;37062;52.546;13.230;2023-12-20T14:38:32;8.20;99.90
51035;DHT22;37062;52.546;13.230;2023-12-20T14:41:00;8.20;99.90
51035;DHT22;37062;52.546;13.230;2023-12-20T14:43:30;8.10;99.90
51035;DHT22;37062;52.546;13.230;2023-12-20T14:45:59;8.10;99.90
51035;DHT22;37062;52.546;13.230;2023-12-20T14:48:28;8.10;99.90
51035;DHT22;37062;52.546;13.230;2023-12-20T14:50:56;8.00;99.90
51035;DHT22;37062;52.546;13.230;2023-12-20T14:53:26;8.00;99.90
51035;DHT22;37062;52.546;13.230;2023-12-20T14:55:55;8.10;99.90
51035;DHT22;37062;52.546;13.230;2023-12-20T14:58:23;8.10;99.90
51035;DHT22;37062;52.546;13.230;2023-12-20T15:00:51;8.10;99.90
51035;DHT22;37062;52.546;13.230;2023-12-20T15:03:21;8.00;99.90
51035;DHT22;37062;52.546;13.230;2023-12-20T15:05:49;8.00;99.90
51035;DHT22;37062;52.546;13.230;2023-12-20T15:08:17;8.00;99.90
51035;DHT22;37062;52.546;13.230;2023-12-20T15:10:46;8.00;99.90
51035;DHT22;37062;52.546;13.230;2023-12-20T15:13:14;8.00;99.90
51035;DHT22;37062;52.546;13.230;2023-12-20T15:15:42;7.90;99.90
51035;DHT22;37062;52.546;13.230;2023-12-20T15:18:13;8.00;99.90
51035;DHT22;37062;52.546;13.230;2023-12-20T15:20:43;7.90;99.90
51035;DHT22;37062;52.546;13.230;2023-12-20T15:23:12;7.90;99.90
51035;DHT22;37062;52.546;13.230;2023-12-20T15:25:40;7.90;99.90
51035;DHT22;37062;52.546;13.230;2023-12-20T15:28:09;7.90;99.90
51035;DHT22;37062;52.546;13.230;2023-12-20T15:30:38;7.80;99.90
51035;DHT22;37062;52.546;13.230;2023-12-20T15:33:06;7.80;99.90
51035;DHT22;37062;52.546;13.230;2023-12-20T15:35:34;7.70;99.90
51035;DHT22;37062;52.546;13.230;2023-12-20T15:38:04;7.70;99.90
51035;DHT22;37062;52.546;13.230;2023-12-20T15:40:32;7.60;99.90
51035;DHT22;37062;52.546;13.230;2023-12-20T15:43:01;7.60;99.90